sensor_id;sensor_type;location;lat;lon;timestamp;pressure;altitude;pressure_sealevel;temperature;humidity
66176;BME280;52977;44.816;20.538;2023-02-12T00:00:47;101065.69;;;4.24;51.62
66176;BME280;52977;44.816;20.538;2023-02-12T00:03:14;101041.66;;;4.28;51.77
66176;BME280;52977;44.816;20.538;2023-02-12T00:05:40;101068.28;;;4.36;51.22
66176;BME280;52977;44.816;20.538;2023-02-12T00:08:07;101062.63;;;4.38;51.39
66176;BME280;52977;44.816;20.538;2023-02-12T00:10:39;101013.41;;;3.68;52.04
66176;BME280;52977;44.816;20.538;2023-02-12T00:13:06;101039.38;;;3.86;52.38
66176;BME280;52977;44.816;20.538;2023-02-12T00:15:32;101070.75;;;4.04;52.46
66176;BME280;52977;44.816;20.538;2023-02-12T00:17:59;101042.47;;;3.78;52.81
66176;BME280;52977;44.816;20.538;2023-02-12T00:20:25;101008.41;;;3.59;52.88
66176;BME280;52977;44.816;20.538;2023-02-12T00:22:51;101072.06;;;4.01;52.68
66176;BME280;52977;44.816;20.538;2023-02-12T00:25:17;101024.31;;;3.73;52.51
66176;BME280;52977;44.816;20.538;2023-02-12T00:27:43;101034.97;;;3.80;53.37
66176;BME280;52977;44.816;20.538;2023-02-12T00:30:09;100971.09;;;3.39;53.02
66176;BME280;52977;44.816;20.538;2023-02-12T00:32:34;101070.91;;;4.14;52.75
66176;BME280;52977;44.816;20.538;2023-02-12T00:35:02;101026.78;;;3.91;52.84
66176;BME280;52977;44.816;20.538;2023-02-12T00:37:27;101052.50;;;4.11;52.93
66176;BME280;52977;44.816;20.538;2023-02-12T00:39:53;101043.56;;;4.10;52.15
66176;BME280;52977;44.816;20.538;2023-02-12T00:42:19;101072.16;;;4.23;51.97
66176;BME280;52977;44.816;20.538;2023-02-12T00:44:45;101008.19;;;3.95;52.18
66176;BME280;52977;44.816;20.538;2023-02-12T00:47:12;101027.00;;;4.07;52.48
66176;BME280;52977;44.816;20.538;2023-02-12T00:49:38;101010.97;;;4.00;52.30
66176;BME280;52977;44.816;20.538;2023-02-12T00:52:04;101008.91;;;4.07;52.16
66176;BME280;52977;44.816;20.538;2023-02-12T00:54:30;101045.25;;;4.34;51.88
66176;BME280;52977;44.816;20.538;2023-02-12T00:56:57;100969.69;;;3.88;51.84
66176;BME280;52977;44.816;20.538;2023-02-12T00:59:28;101040.53;;;4.24;52.00
66176;BME280;52977;44.816;20.538;2023-02-12T01:01:55;101042.97;;;4.25;52.20
66176;BME280;52977;44.816;20.538;2023-02-12T01:04:23;101025.22;;;4.13;52.55
66176;BME280;52977;44.816;20.538;2023-02-12T01:06:49;101026.75;;;4.08;52.12
66176;BME280;52977;44.816;20.538;2023-02-12T01:09:15;100978.91;;;3.87;51.55
66176;BME280;52977;44.816;20.538;2023-02-12T01:11:42;101038.72;;;4.30;52.17
66176;BME280;52977;44.816;20.538;2023-02-12T01:14:08;100990.91;;;3.96;52.16
66176;BME280;52977;44.816;20.538;2023-02-12T01:16:34;101013.19;;;4.20;51.86
66176;BME280;52977;44.816;20.538;2023-02-12T01:19:02;101030.38;;;4.14;52.45
66176;BME280;52977;44.816;20.538;2023-02-12T01:21:31;101015.72;;;4.10;52.40
66176;BME280;52977;44.816;20.538;2023-02-12T01:24:00;100919.06;;;3.44;52.89
66176;BME280;52977;44.816;20.538;2023-02-12T01:26:27;101019.41;;;4.04;52.16
66176;BME280;52977;44.816;20.538;2023-02-12T01:28:57;100972.75;;;3.57;52.38
66176;BME280;52977;44.816;20.538;2023-02-12T01:31:27;101030.78;;;3.89;52.86
66176;BME280;52977;44.816;20.538;2023-02-12T01:33:55;101024.31;;;3.73;52.61
66176;BME280;52977;44.816;20.538;2023-02-12T01:36:22;100975.25;;;3.64;52.66
66176;BME280;52977;44.816;20.538;2023-02-12T01:38:49;101015.47;;;3.94;53.39
66176;BME280;52977;44.816;20.538;2023-02-12T01:41:22;100943.44;;;3.49;53.16
66176;BME280;52977;44.816;20.538;2023-02-12T01:44:22;100984.59;;;3.73;53.63
66176;BME280;52977;44.816;20.538;2023-02-12T01:46:54;101015.06;;;4.03;53.35
66176;BME280;52977;44.816;20.538;2023-02-12T01:49:25;100958.84;;;3.66;53.39
66176;BME280;52977;44.816;20.538;2023-02-12T01:52:09;100966.44;;;3.69;53.14
66176;BME280;52977;44.816;20.538;2023-02-12T01:54:38;100993.19;;;3.87;53.25
66176;BME280;52977;44.816;20.538;2023-02-12T01:57:06;100943.28;;;3.56;53.11
66176;BME280;52977;44.816;20.538;2023-02-12T01:59:33;100994.50;;;3.85;53.49
66176;BME280;52977;44.816;20.538;2023-02-12T02:02:02;100963.16;;;3.67;53.81
66176;BME280;52977;44.816;20.538;2023-02-12T02:04:34;100958.59;;;3.67;54.87
66176;BME280;52977;44.816;20.538;2023-02-12T02:07:04;100987.28;;;3.56;55.54
66176;BME280;52977;44.816;20.538;2023-02-12T02:09:33;101007.44;;;3.66;55.97
66176;BME280;52977;44.816;20.538;2023-02-12T02:12:00;100954.88;;;3.39;55.93
66176;BME280;52977;44.816;20.538;2023-02-12T02:14:46;100997.59;;;3.59;56.32
66176;BME280;52977;44.816;20.538;2023-02-12T02:25:23;101029.56;;;3.34;58.35
66176;BME280;52977;44.816;20.538;2023-02-12T02:30:52;101021.50;;;3.51;59.37
66176;BME280;52977;44.816;20.538;2023-02-12T02:33:34;101014.53;;;3.55;60.52
66176;BME280;52977;44.816;20.538;2023-02-12T02:36:18;101014.47;;;3.67;60.92
66176;BME280;52977;44.816;20.538;2023-02-12T02:44:35;100985.16;;;3.58;61.94
66176;BME280;52977;44.816;20.538;2023-02-12T02:47:04;101003.91;;;3.65;62.68
66176;BME280;52977;44.816;20.538;2023-02-12T02:49:38;100956.69;;;3.34;62.96
66176;BME280;52977;44.816;20.538;2023-02-12T02:52:09;101025.63;;;3.70;64.43
66176;BME280;52977;44.816;20.538;2023-02-12T02:54:40;100953.84;;;3.12;65.39
66176;BME280;52977;44.816;20.538;2023-02-12T02:57:12;101025.09;;;3.56;66.17
66176;BME280;52977;44.816;20.538;2023-02-12T02:59:43;100939.41;;;2.89;66.54
66176;BME280;52977;44.816;20.538;2023-02-12T03:02:24;101029.09;;;3.54;66.66
66176;BME280;52977;44.816;20.538;2023-02-12T03:05:09;100988.19;;;3.16;67.16
66176;BME280;52977;44.816;20.538;2023-02-12T03:07:44;101027.28;;;3.42;67.92
66176;BME280;52977;44.816;20.538;2023-02-12T03:10:17;100995.34;;;3.22;67.94
66176;BME280;52977;44.816;20.538;2023-02-12T03:12:55;100998.50;;;3.19;68.68
66176;BME280;52977;44.816;20.538;2023-02-12T03:17:49;101036.53;;;3.18;71.22
66176;BME280;52977;44.816;20.538;2023-02-12T03:20:28;101043.06;;;3.34;72.14
66176;BME280;52977;44.816;20.538;2023-02-12T03:23:10;101048.84;;;3.14;73.90
66176;BME280;52977;44.816;20.538;2023-02-12T03:25:43;101049.75;;;3.31;74.37
66176;BME280;52977;44.816;20.538;2023-02-12T03:28:17;101051.72;;;3.07;77.10
66176;BME280;52977;44.816;20.538;2023-02-12T03:33:43;100976.56;;;2.46;80.63
66176;BME280;52977;44.816;20.538;2023-02-12T03:38:52;101071.44;;;2.84;84.58
66176;BME280;52977;44.816;20.538;2023-02-12T03:41:22;101079.19;;;2.80;86.61
66176;BME280;52977;44.816;20.538;2023-02-12T03:43:56;101079.50;;;2.96;87.29
66176;BME280;52977;44.816;20.538;2023-02-12T03:46:40;101049.63;;;2.85;88.00
66176;BME280;52977;44.816;20.538;2023-02-12T03:51:46;101101.66;;;3.10;89.54
66176;BME280;52977;44.816;20.538;2023-02-12T03:54:16;101079.47;;;3.19;90.32
66176;BME280;52977;44.816;20.538;2023-02-12T03:59:24;101090.16;;;3.14;94.23
66176;BME280;52977;44.816;20.538;2023-02-12T04:01:51;101029.25;;;2.66;95.22
66176;BME280;52977;44.816;20.538;2023-02-12T04:04:18;101042.06;;;2.59;99.53
66176;BME280;52977;44.816;20.538;2023-02-12T04:06:46;100998.00;;;2.41;99.53
66176;BME280;52977;44.816;20.538;2023-02-12T04:09:13;101088.53;;;3.13;99.21
66176;BME280;52977;44.816;20.538;2023-02-12T04:17:08;101092.31;;;3.00;100.00
66176;BME280;52977;44.816;20.538;2023-02-12T04:28:25;101080.97;;;3.27;100.00
66176;BME280;52977;44.816;20.538;2023-02-12T04:31:30;101092.88;;;3.43;100.00
66176;BME280;52977;44.816;20.538;2023-02-12T04:37:06;101080.34;;;3.37;100.00
66176;BME280;52977;44.816;20.538;2023-02-12T04:39:37;101095.44;;;3.50;100.00
66176;BME280;52977;44.816;20.538;2023-02-12T04:42:04;101086.78;;;3.48;100.00
66176;BME280;52977;44.816;20.538;2023-02-12T04:44:34;101059.81;;;3.07;100.00
66176;BME280;52977;44.816;20.538;2023-02-12T04:47:02;101091.16;;;3.37;100.00
66176;BME280;52977;44.816;20.538;2023-02-12T04:49:28;101104.66;;;3.37;100.00
66176;BME280;52977;44.816;20.538;2023-02-12T04:51:55;101098.22;;;3.26;100.00
66176;BME280;52977;44.816;20.538;2023-02-12T04:54:22;101095.31;;;3.16;100.00
66176;BME280;52977;44.816;20.538;2023-02-12T04:56:49;101094.03;;;3.18;100.00
66176;BME280;52977;44.816;20.538;2023-02-12T04:59:15;101086.25;;;3.34;100.00
66176;BME280;52977;44.816;20.538;2023-02-12T05:01:42;101098.34;;;3.19;100.00
66176;BME280;52977;44.816;20.538;2023-02-12T05:04:14;101094.22;;;3.29;100.00
66176;BME280;52977;44.816;20.538;2023-02-12T05:06:42;101063.19;;;3.14;100.00
66176;BME280;52977;44.816;20.538;2023-02-12T05:09:14;101028.06;;;2.85;100.00
66176;BME280;52977;44.816;20.538;2023-02-12T05:11:40;101121.25;;;3.05;100.00
66176;BME280;52977;44.816;20.538;2023-02-12T05:14:07;101086.22;;;2.93;100.00
66176;BME280;52977;44.816;20.538;2023-02-12T05:16:33;101057.03;;;2.78;100.00
66176;BME280;52977;44.816;20.538;2023-02-12T05:18:59;101066.03;;;2.96;100.00
66176;BME280;52977;44.816;20.538;2023-02-12T05:21:25;101112.06;;;3.30;100.00
66176;BME280;52977;44.816;20.538;2023-02-12T05:23:51;101042.53;;;3.08;99.46
66176;BME280;52977;44.816;20.538;2023-02-12T05:26:20;101110.00;;;3.49;98.96
66176;BME280;52977;44.816;20.538;2023-02-12T05:28:46;101080.72;;;3.29;97.44
66176;BME280;52977;44.816;20.538;2023-02-12T05:31:16;101117.41;;;3.53;97.15
66176;BME280;52977;44.816;20.538;2023-02-12T05:33:43;101055.34;;;3.13;97.29
66176;BME280;52977;44.816;20.538;2023-02-12T05:36:12;100964.44;;;2.61;95.97
66176;BME280;52977;44.816;20.538;2023-02-12T05:38:39;101111.38;;;3.63;95.35
66176;BME280;52977;44.816;20.538;2023-02-12T05:41:09;101048.09;;;3.30;95.08
66176;BME280;52977;44.816;20.538;2023-02-12T05:43:36;101097.03;;;3.63;93.53
66176;BME280;52977;44.816;20.538;2023-02-12T05:46:04;101116.13;;;3.73;92.64
66176;BME280;52977;44.816;20.538;2023-02-12T05:48:31;101121.44;;;3.68;93.19
66176;BME280;52977;44.816;20.538;2023-02-12T05:53:35;101064.84;;;3.03;94.56
66176;BME280;52977;44.816;20.538;2023-02-12T05:58:36;101136.72;;;3.21;96.89
66176;BME280;52977;44.816;20.538;2023-02-12T06:01:18;101164.84;;;3.37;97.46
66176;BME280;52977;44.816;20.538;2023-02-12T06:03:45;101176.72;;;3.36;97.97
66176;BME280;52977;44.816;20.538;2023-02-12T06:06:12;101167.09;;;3.29;96.35
66176;BME280;52977;44.816;20.538;2023-02-12T06:08:38;101163.72;;;3.21;96.96
66176;BME280;52977;44.816;20.538;2023-02-12T06:11:09;101191.19;;;2.95;100.00
66176;BME280;52977;44.816;20.538;2023-02-12T06:13:35;101185.31;;;2.98;100.00
66176;BME280;52977;44.816;20.538;2023-02-12T06:16:02;101105.47;;;2.61;99.89
66176;BME280;52977;44.816;20.538;2023-02-12T06:18:28;101129.97;;;2.71;97.87
66176;BME280;52977;44.816;20.538;2023-02-12T06:20:55;101222.13;;;3.04;100.00
66176;BME280;52977;44.816;20.538;2023-02-12T06:23:21;101136.78;;;2.74;99.33
66176;BME280;52977;44.816;20.538;2023-02-12T06:25:49;101185.53;;;3.20;97.55
66176;BME280;52977;44.816;20.538;2023-02-12T06:28:16;101142.16;;;2.98;96.38
66176;BME280;52977;44.816;20.538;2023-02-12T06:30:42;101211.34;;;3.28;97.29
66176;BME280;52977;44.816;20.538;2023-02-12T06:33:09;101140.28;;;2.86;97.19
66176;BME280;52977;44.816;20.538;2023-02-12T06:35:35;101185.63;;;3.25;97.02
66176;BME280;52977;44.816;20.538;2023-02-12T06:38:03;101219.66;;;3.38;97.36
66176;BME280;52977;44.816;20.538;2023-02-12T06:40:29;101191.53;;;3.10;97.25
66176;BME280;52977;44.816;20.538;2023-02-12T06:42:55;101150.72;;;2.95;97.37
66176;BME280;52977;44.816;20.538;2023-02-12T06:45:22;101172.97;;;3.14;96.98
66176;BME280;52977;44.816;20.538;2023-02-12T06:47:48;101205.97;;;3.16;97.25
66176;BME280;52977;44.816;20.538;2023-02-12T06:50:15;101211.34;;;3.28;96.34
66176;BME280;52977;44.816;20.538;2023-02-12T06:52:41;101210.50;;;3.15;98.35
66176;BME280;52977;44.816;20.538;2023-02-12T06:55:07;101192.00;;;3.07;97.63
66176;BME280;52977;44.816;20.538;2023-02-12T06:57:33;101253.69;;;3.51;97.17
66176;BME280;52977;44.816;20.538;2023-02-12T06:59:59;101256.28;;;3.22;99.59
66176;BME280;52977;44.816;20.538;2023-02-12T07:02:25;101254.16;;;3.12;99.84
66176;BME280;52977;44.816;20.538;2023-02-12T07:04:51;101281.63;;;3.33;99.31
66176;BME280;52977;44.816;20.538;2023-02-12T07:07:17;101217.44;;;3.11;97.66
66176;BME280;52977;44.816;20.538;2023-02-12T07:09:43;101248.19;;;3.10;99.02
66176;BME280;52977;44.816;20.538;2023-02-12T07:12:11;101267.19;;;3.15;99.48
66176;BME280;52977;44.816;20.538;2023-02-12T07:14:37;101235.75;;;2.85;100.00
66176;BME280;52977;44.816;20.538;2023-02-12T07:17:04;101254.16;;;2.88;100.00
66176;BME280;52977;44.816;20.538;2023-02-12T07:19:32;101246.88;;;2.77;100.00
66176;BME280;52977;44.816;20.538;2023-02-12T07:21:59;101253.00;;;2.96;99.88
66176;BME280;52977;44.816;20.538;2023-02-12T07:24:25;101216.28;;;2.83;99.00
66176;BME280;52977;44.816;20.538;2023-02-12T07:26:51;101294.31;;;3.20;99.92
66176;BME280;52977;44.816;20.538;2023-02-12T07:29:17;101312.97;;;3.34;99.43
66176;BME280;52977;44.816;20.538;2023-02-12T07:31:44;101309.88;;;3.06;100.00
66176;BME280;52977;44.816;20.538;2023-02-12T07:34:11;101305.44;;;3.36;99.08
66176;BME280;52977;44.816;20.538;2023-02-12T07:36:37;101299.34;;;3.29;98.38
66176;BME280;52977;44.816;20.538;2023-02-12T07:39:04;101293.00;;;3.23;98.71
66176;BME280;52977;44.816;20.538;2023-02-12T07:41:32;101316.97;;;3.31;99.58
66176;BME280;52977;44.816;20.538;2023-02-12T07:44:02;101305.09;;;3.44;97.88
66176;BME280;52977;44.816;20.538;2023-02-12T07:46:40;101256.63;;;3.02;99.23
66176;BME280;52977;44.816;20.538;2023-02-12T07:49:13;101313.31;;;3.37;100.00
66176;BME280;52977;44.816;20.538;2023-02-12T07:51:40;101324.13;;;3.37;100.00
66176;BME280;52977;44.816;20.538;2023-02-12T07:54:07;101305.22;;;3.37;99.68
66176;BME280;52977;44.816;20.538;2023-02-12T07:56:35;101318.59;;;3.44;100.00
66176;BME280;52977;44.816;20.538;2023-02-12T07:59:05;101305.47;;;3.48;100.00
66176;BME280;52977;44.816;20.538;2023-02-12T08:01:37;101288.22;;;3.37;99.89
66176;BME280;52977;44.816;20.538;2023-02-12T08:04:08;101296.66;;;3.40;99.99
66176;BME280;52977;44.816;20.538;2023-02-12T08:06:38;101265.22;;;3.22;100.00
66176;BME280;52977;44.816;20.538;2023-02-12T08:09:07;101210.88;;;2.83;100.00
66176;BME280;52977;44.816;20.538;2023-02-12T08:11:35;101138.41;;;2.51;99.49
66176;BME280;52977;44.816;20.538;2023-02-12T08:14:02;101272.00;;;3.37;98.58
66176;BME280;52977;44.816;20.538;2023-02-12T08:16:29;101315.06;;;3.55;97.88
66176;BME280;52977;44.816;20.538;2023-02-12T08:18:57;101276.59;;;3.13;99.21
66176;BME280;52977;44.816;20.538;2023-02-12T08:21:25;101322.34;;;3.43;99.97
66176;BME280;52977;44.816;20.538;2023-02-12T08:23:53;101299.22;;;3.23;98.52
66176;BME280;52977;44.816;20.538;2023-02-12T08:26:21;101293.13;;;3.04;100.00
66176;BME280;52977;44.816;20.538;2023-02-12T08:28:50;101319.44;;;3.33;99.03
66176;BME280;52977;44.816;20.538;2023-02-12T08:31:21;101330.22;;;3.45;98.93
66176;BME280;52977;44.816;20.538;2023-02-12T08:33:48;101308.16;;;3.36;99.50
66176;BME280;52977;44.816;20.538;2023-02-12T08:36:17;101297.38;;;3.24;97.78
66176;BME280;52977;44.816;20.538;2023-02-12T08:38:44;101303.81;;;3.35;97.15
66176;BME280;52977;44.816;20.538;2023-02-12T08:41:13;101319.09;;;3.41;99.07
66176;BME280;52977;44.816;20.538;2023-02-12T08:43:41;101334.31;;;3.47;95.68
66176;BME280;52977;44.816;20.538;2023-02-12T08:48:38;101286.22;;;3.08;97.96
66176;BME280;52977;44.816;20.538;2023-02-12T08:51:06;101360.63;;;3.40;98.79
66176;BME280;52977;44.816;20.538;2023-02-12T08:53:33;101334.06;;;3.25;99.21
66176;BME280;52977;44.816;20.538;2023-02-12T08:55:59;101363.94;;;3.42;96.66
66176;BME280;52977;44.816;20.538;2023-02-12T08:58:26;101360.84;;;3.27;99.51
66176;BME280;52977;44.816;20.538;2023-02-12T09:00:52;101361.81;;;3.32;98.75
66176;BME280;52977;44.816;20.538;2023-02-12T09:03:18;101378.47;;;3.53;97.85
66176;BME280;52977;44.816;20.538;2023-02-12T09:05:45;101408.78;;;3.55;96.80
66176;BME280;52977;44.816;20.538;2023-02-12T09:08:11;101368.34;;;3.24;97.79
66176;BME280;52977;44.816;20.538;2023-02-12T09:10:41;101358.50;;;3.30;98.49
66176;BME280;52977;44.816;20.538;2023-02-12T09:13:09;101377.66;;;3.64;96.20
66176;BME280;52977;44.816;20.538;2023-02-12T09:15:39;101386.34;;;3.66;95.76
66176;BME280;52977;44.816;20.538;2023-02-12T09:18:06;101391.75;;;3.66;96.25
66176;BME280;52977;44.816;20.538;2023-02-12T09:20:36;101394.09;;;3.63;96.52
66176;BME280;52977;44.816;20.538;2023-02-12T09:23:02;101344.28;;;3.23;97.41
66176;BME280;52977;44.816;20.538;2023-02-12T09:25:29;101324.00;;;3.08;97.21
66176;BME280;52977;44.816;20.538;2023-02-12T09:27:55;101348.31;;;3.32;97.60
66176;BME280;52977;44.816;20.538;2023-02-12T09:30:21;101369.44;;;3.35;98.82
66176;BME280;52977;44.816;20.538;2023-02-12T09:32:47;101391.97;;;3.53;99.88
66176;BME280;52977;44.816;20.538;2023-02-12T09:35:13;101407.63;;;3.74;99.67
66176;BME280;52977;44.816;20.538;2023-02-12T09:37:39;101404.19;;;3.79;98.29
66176;BME280;52977;44.816;20.538;2023-02-12T09:40:07;101370.59;;;3.51;98.89
66176;BME280;52977;44.816;20.538;2023-02-12T09:42:48;101393.88;;;3.76;97.21
66176;BME280;52977;44.816;20.538;2023-02-12T09:45:28;101392.47;;;3.62;98.68
66176;BME280;52977;44.816;20.538;2023-02-12T09:48:15;101337.25;;;3.22;97.11
66176;BME280;52977;44.816;20.538;2023-02-12T09:50:51;101421.94;;;3.99;94.40
66176;BME280;52977;44.816;20.538;2023-02-12T09:53:21;101442.84;;;3.91;95.30
66176;BME280;52977;44.816;20.538;2023-02-12T09:55:47;101441.09;;;3.85;95.23
66176;BME280;52977;44.816;20.538;2023-02-12T09:58:21;101443.91;;;4.02;93.62
66176;BME280;52977;44.816;20.538;2023-02-12T10:00:48;101410.06;;;3.88;93.36
66176;BME280;52977;44.816;20.538;2023-02-12T10:03:16;101415.72;;;3.86;92.85
66176;BME280;52977;44.816;20.538;2023-02-12T10:05:49;101462.94;;;4.19;91.90
66176;BME280;52977;44.816;20.538;2023-02-12T10:08:42;101466.13;;;4.16;93.17
66176;BME280;52977;44.816;20.538;2023-02-12T10:22:34;101443.56;;;3.99;92.91
66176;BME280;52977;44.816;20.538;2023-02-12T10:27:47;101406.44;;;3.70;91.84
66176;BME280;52977;44.816;20.538;2023-02-12T10:30:56;101452.38;;;4.18;89.44
66176;BME280;52977;44.816;20.538;2023-02-12T10:33:26;101386.81;;;3.75;88.84
66176;BME280;52977;44.816;20.538;2023-02-12T10:35:58;101459.66;;;4.17;89.29
66176;BME280;52977;44.816;20.538;2023-02-12T10:38:31;101458.81;;;4.28;90.00
66176;BME280;52977;44.816;20.538;2023-02-12T10:41:00;101416.88;;;4.14;87.45
66176;BME280;52977;44.816;20.538;2023-02-12T10:43:27;101449.28;;;4.38;87.25
66176;BME280;52977;44.816;20.538;2023-02-12T10:45:53;101371.44;;;3.87;88.03
66176;BME280;52977;44.816;20.538;2023-02-12T10:48:23;101398.78;;;4.15;85.99
66176;BME280;52977;44.816;20.538;2023-02-12T10:53:28;101397.00;;;4.20;85.46
66176;BME280;52977;44.816;20.538;2023-02-12T10:58:41;101440.94;;;4.27;81.19
66176;BME280;52977;44.816;20.538;2023-02-12T11:03:44;101368.38;;;3.96;82.10
66176;BME280;52977;44.816;20.538;2023-02-12T11:06:17;101422.22;;;4.50;82.22
66176;BME280;52977;44.816;20.538;2023-02-12T11:08:44;101439.19;;;4.74;79.28
66176;BME280;52977;44.816;20.538;2023-02-12T11:11:19;101421.94;;;4.63;78.52
66176;BME280;52977;44.816;20.538;2023-02-12T11:13:57;101424.00;;;4.73;76.20
66176;BME280;52977;44.816;20.538;2023-02-12T11:16:29;101440.16;;;4.68;78.51
66176;BME280;52977;44.816;20.538;2023-02-12T11:19:04;101417.06;;;4.48;79.03
66176;BME280;52977;44.816;20.538;2023-02-12T11:21:31;101410.91;;;4.53;78.79
66176;BME280;52977;44.816;20.538;2023-02-12T11:24:21;101440.97;;;4.68;78.56
66176;BME280;52977;44.816;20.538;2023-02-12T11:26:47;101426.72;;;4.73;75.08
66176;BME280;52977;44.816;20.538;2023-02-12T11:29:21;101414.41;;;4.65;73.96
66176;BME280;52977;44.816;20.538;2023-02-12T11:32:02;101445.50;;;4.91;73.26
66176;BME280;52977;44.816;20.538;2023-02-12T11:34:29;101437.41;;;4.79;75.70
66176;BME280;52977;44.816;20.538;2023-02-12T11:36:55;101442.19;;;4.89;74.44
66176;BME280;52977;44.816;20.538;2023-02-12T11:39:34;101452.78;;;4.91;74.41
66176;BME280;52977;44.816;20.538;2023-02-12T11:42:07;101445.50;;;4.91;74.16
66176;BME280;52977;44.816;20.538;2023-02-12T11:44:42;101442.41;;;5.00;74.66
66176;BME280;52977;44.816;20.538;2023-02-12T11:47:16;101333.31;;;4.24;75.09
66176;BME280;52977;44.816;20.538;2023-02-12T11:49:52;101442.72;;;5.03;73.98
66176;BME280;52977;44.816;20.538;2023-02-12T11:52:23;101377.09;;;4.67;75.30
66176;BME280;52977;44.816;20.538;2023-02-12T11:54:53;101441.03;;;5.14;76.41
66176;BME280;52977;44.816;20.538;2023-02-12T11:58:14;101448.53;;;5.24;75.60
66176;BME280;52977;44.816;20.538;2023-02-12T12:01:03;101459.75;;;5.16;75.99
66176;BME280;52977;44.816;20.538;2023-02-12T12:12:03;101376.03;;;4.39;73.39
66176;BME280;52977;44.816;20.538;2023-02-12T12:14:41;101433.09;;;5.24;73.96
66176;BME280;52977;44.816;20.538;2023-02-12T12:17:39;101436.53;;;5.20;73.46
66176;BME280;52977;44.816;20.538;2023-02-12T12:20:30;101419.78;;;5.23;72.52
66176;BME280;52977;44.816;20.538;2023-02-12T12:25:35;101402.53;;;5.12;72.06
66176;BME280;52977;44.816;20.538;2023-02-12T12:33:42;101423.00;;;5.54;71.35
66176;BME280;52977;44.816;20.538;2023-02-12T12:41:38;101441.66;;;5.84;70.24
66176;BME280;52977;44.816;20.538;2023-02-12T13:05:54;101446.63;;;6.48;69.76
66176;BME280;52977;44.816;20.538;2023-02-12T13:17:08;101440.84;;;6.62;67.58
66176;BME280;52977;44.816;20.538;2023-02-12T13:19:52;101438.69;;;6.64;67.93
66176;BME280;52977;44.816;20.538;2023-02-12T13:22:25;101452.81;;;6.88;67.84
66176;BME280;52977;44.816;20.538;2023-02-12T13:24:57;101448.00;;;6.95;67.18
66176;BME280;52977;44.816;20.538;2023-02-12T13:27:31;101459.84;;;6.84;67.23
66176;BME280;52977;44.816;20.538;2023-02-12T13:30:04;101456.50;;;6.77;67.75
66176;BME280;52977;44.816;20.538;2023-02-12T13:32:36;101459.69;;;6.74;67.75
66176;BME280;52977;44.816;20.538;2023-02-12T13:35:05;101422.09;;;6.38;68.45
66176;BME280;52977;44.816;20.538;2023-02-12T13:37:39;101464.56;;;6.72;68.74
66176;BME280;52977;44.816;20.538;2023-02-12T13:40:17;101450.41;;;6.70;67.80
66176;BME280;52977;44.816;20.538;2023-02-12T13:50:43;101446.97;;;7.01;67.98
66176;BME280;52977;44.816;20.538;2023-02-12T13:53:26;101450.41;;;6.92;68.32
66176;BME280;52977;44.816;20.538;2023-02-12T13:58:46;101458.41;;;7.04;67.77
66176;BME280;52977;44.816;20.538;2023-02-12T14:01:38;101469.09;;;7.10;68.00
66176;BME280;52977;44.816;20.538;2023-02-12T14:06:56;101477.50;;;6.87;68.93
66176;BME280;52977;44.816;20.538;2023-02-12T14:09:29;101425.50;;;6.50;69.04
66176;BME280;52977;44.816;20.538;2023-02-12T14:11:58;101472.44;;;6.95;69.35
66176;BME280;52977;44.816;20.538;2023-02-12T14:14:36;101490.13;;;6.98;69.56
66176;BME280;52977;44.816;20.538;2023-02-12T14:27:53;101452.84;;;6.66;69.94
66176;BME280;52977;44.816;20.538;2023-02-12T14:30:26;101479.84;;;6.78;69.39
66176;BME280;52977;44.816;20.538;2023-02-12T14:33:10;101487.78;;;6.84;68.96
66176;BME280;52977;44.816;20.538;2023-02-12T14:35:37;101491.19;;;6.75;69.18
66176;BME280;52977;44.816;20.538;2023-02-12T14:41:23;101407.00;;;6.03;69.33
66176;BME280;52977;44.816;20.538;2023-02-12T14:46:51;101498.91;;;6.61;69.66
66176;BME280;52977;44.816;20.538;2023-02-12T14:49:26;101494.22;;;6.56;69.64
66176;BME280;52977;44.816;20.538;2023-02-12T14:52:06;101461.66;;;6.34;70.09
66176;BME280;52977;44.816;20.538;2023-02-12T14:54:55;101489.75;;;6.67;69.53
66176;BME280;52977;44.816;20.538;2023-02-12T14:57:29;101500.63;;;6.67;69.83
66176;BME280;52977;44.816;20.538;2023-02-12T15:00:03;101495.81;;;6.74;69.17
66176;BME280;52977;44.816;20.538;2023-02-12T15:02:34;101494.69;;;6.70;69.58
66176;BME280;52977;44.816;20.538;2023-02-12T15:05:12;101503.88;;;6.69;69.56
66176;BME280;52977;44.816;20.538;2023-02-12T15:07:48;101395.06;;;5.87;69.78
66176;BME280;52977;44.816;20.538;2023-02-12T15:10:18;101506.16;;;6.55;69.42
66176;BME280;52977;44.816;20.538;2023-02-12T15:12:56;101511.84;;;6.54;69.55
66176;BME280;52977;44.816;20.538;2023-02-12T15:15:31;101518.31;;;6.53;70.04
66176;BME280;52977;44.816;20.538;2023-02-12T15:18:07;101494.19;;;6.34;70.14
66176;BME280;52977;44.816;20.538;2023-02-12T15:20:47;101509.66;;;6.33;70.42
66176;BME280;52977;44.816;20.538;2023-02-12T15:23:39;101521.88;;;6.36;70.95
66176;BME280;52977;44.816;20.538;2023-02-12T15:26:12;101514.16;;;6.45;70.71
66176;BME280;52977;44.816;20.538;2023-02-12T15:28:39;101501.06;;;6.42;70.60
66176;BME280;52977;44.816;20.538;2023-02-12T15:31:06;101514.88;;;6.40;71.35
66176;BME280;52977;44.816;20.538;2023-02-12T15:33:39;101491.41;;;6.29;70.82
66176;BME280;52977;44.816;20.538;2023-02-12T15:36:10;101483.94;;;6.19;71.26
66176;BME280;52977;44.816;20.538;2023-02-12T15:38:40;101452.56;;;5.89;71.10
66176;BME280;52977;44.816;20.538;2023-02-12T15:41:07;101493.59;;;6.10;71.78
66176;BME280;52977;44.816;20.538;2023-02-12T15:43:38;101518.63;;;6.17;72.41
66176;BME280;52977;44.816;20.538;2023-02-12T15:46:06;101545.81;;;6.22;72.53